Time;durP1;ratioP1;P1;durP2;ratioP2;P2;SDS_P1;SDS_P2;PMS_P1;PMS_P2;Temp;Humidity;BMP_temperature;BMP_pressure;BME280_temperature;BME280_humidity;BME280_pressure;Samples;Min_cycle;Max_cycle;Signal;HPM_P1;HPM_P2
2022/10/20 00:01:17;;;;;;;5.70;2.80;;;;;;;28.33;26.12;101288.25;4993141;28;20026;-55
2022/10/20 00:03:44;;;;;;;4.97;2.85;;;;;;;27.94;26.79;101277.91;4991942;28;20111;-55
2022/10/20 00:06:20;;;;;;;6.85;3.20;;;;;;;27.92;27.34;101278.22;4992593;28;20042;-55
2022/10/20 00:08:47;;;;;;;11.95;3.75;;;;;;;28.00;27.69;101282.16;4992033;28;20036;-56
2022/10/20 00:11:16;;;;;;;8.75;3.33;;;;;;;27.75;28.15;101284.38;4992399;28;20101;-56
2022/10/20 00:13:45;;;;;;;6.25;3.22;;;;;;;27.55;28.57;101285.66;4991288;28;20089;-56
2022/10/20 00:16:11;;;;;;;8.85;3.22;;;;;;;27.72;28.71;101284.22;4992087;28;20038;-56
2022/10/20 00:18:38;;;;;;;6.40;3.20;;;;;;;27.74;29.16;101271.75;4990104;28;20018;-56
2022/10/20 00:21:07;;;;;;;14.48;2.92;;;;;;;27.50;29.39;101277.53;4992563;28;20030;-56
2022/10/20 00:23:34;;;;;;;9.05;3.20;;;;;;;27.35;29.22;101275.91;4992863;28;20058;-55
2022/10/20 00:26:02;;;;;;;7.13;3.13;;;;;;;27.31;29.18;101269.41;4992030;28;20038;-56
2022/10/20 00:28:28;;;;;;;9.90;3.53;;;;;;;27.12;29.79;101271.47;4982075;28;20475;-57
2022/10/20 00:30:55;;;;;;;7.60;3.63;;;;;;;26.91;30.48;101273.78;4973044;28;20062;-59
2022/10/20 00:33:22;;;;;;;7.55;3.33;;;;;;;26.91;31.04;101275.72;4979738;28;20034;-56
2022/10/20 00:35:48;;;;;;;6.47;3.85;;;;;;;26.71;31.66;101274.22;4982405;28;20042;-56
2022/10/20 00:38:15;;;;;;;9.10;3.88;;;;;;;26.58;32.58;101281.28;4992036;28;20057;-56
2022/10/20 00:40:41;;;;;;;9.52;4.07;;;;;;;26.22;34.22;101270.94;4991638;28;20023;-56
2022/10/20 00:43:12;;;;;;;8.13;4.57;;;;;;;26.21;34.42;101274.00;4991969;28;20077;-56
2022/10/20 00:45:41;;;;;;;8.77;4.40;;;;;;;25.72;35.70;101273.34;4987926;28;20105;-56
2022/10/20 00:48:17;;;;;;;9.00;4.30;;;;;;;25.56;36.42;101274.69;4972534;28;20069;-57
2022/10/20 00:50:49;;;;;;;8.45;4.22;;;;;;;25.44;36.46;101277.88;4978591;28;20097;-56
2022/10/20 00:53:17;;;;;;;10.85;4.22;;;;;;;25.59;37.10;101286.97;4991887;28;20117;-56
2022/10/20 00:55:47;;;;;;;10.65;4.68;;;;;;;25.42;37.64;101274.59;4991618;28;20026;-56
2022/10/20 00:58:13;;;;;;;13.32;4.68;;;;;;;25.30;38.61;101281.63;4991742;28;20030;-56
2022/10/20 01:00:41;;;;;;;9.43;4.75;;;;;;;25.08;39.00;101273.97;4991910;28;20367;-56
2022/10/20 01:03:15;;;;;;;8.65;4.10;;;;;;;25.00;39.10;101278.13;4992189;28;20483;-57
2022/10/20 01:05:41;;;;;;;9.57;4.30;;;;;;;24.72;39.90;101272.44;4994357;28;20088;-56
2022/10/20 01:08:08;;;;;;;8.90;4.47;;;;;;;24.76;38.69;101272.63;4993623;28;20487;-56
2022/10/20 01:10:40;;;;;;;9.90;4.50;;;;;;;24.44;38.96;101276.00;4995114;28;20153;-55
2022/10/20 01:13:24;;;;;;;8.98;4.25;;;;;;;24.40;38.61;101274.94;4994304;28;20041;-55
2022/10/20 01:16:21;;;;;;;7.50;4.20;;;;;;;24.04;39.07;101271.66;4986744;28;20034;-55
2022/10/20 01:19:12;;;;;;;6.63;3.70;;;;;;;23.98;39.52;101268.16;4988707;28;20109;-55
2022/10/20 01:22:13;;;;;;;10.60;4.10;;;;;;;23.89;40.38;101275.34;4995767;28;20383;-55
2022/10/20 01:24:49;;;;;;;9.48;4.30;;;;;;;23.76;41.11;101273.22;4993311;28;20034;-55
2022/10/20 01:27:41;;;;;;;9.32;4.15;;;;;;;23.35;40.52;101274.25;4994450;28;20037;-55
2022/10/20 01:30:11;;;;;;;9.23;3.90;;;;;;;23.11;40.92;101270.56;4976173;28;20039;-55
2022/10/20 01:32:51;;;;;;;9.35;4.50;;;;;;;23.08;41.28;101274.66;4977047;28;20113;-55
2022/10/20 01:35:33;;;;;;;11.65;4.15;;;;;;;22.95;41.33;101275.25;4994679;28;20100;-55
2022/10/20 01:38:38;;;;;;;12.60;4.65;;;;;;;23.18;41.45;101276.53;4995063;28;20588;-55
2022/10/20 01:41:11;;;;;;;7.95;4.30;;;;;;;23.05;41.71;101277.97;4992332;28;20065;-54
2022/10/20 01:43:41;;;;;;;10.05;4.75;;;;;;;22.90;42.20;101283.47;4995575;28;20479;-55
2022/10/20 01:46:09;;;;;;;11.60;5.45;;;;;;;22.48;43.55;101281.06;4993003;28;20432;-55
2022/10/20 01:48:37;;;;;;;9.15;5.10;;;;;;;22.49;43.99;101282.72;4991286;28;20029;-55
2022/10/20 01:51:04;;;;;;;11.90;3.92;;;;;;;22.55;44.18;101278.88;4994357;28;20041;-55
2022/10/20 01:53:32;;;;;;;14.55;5.25;;;;;;;22.28;45.18;101288.19;4994706;28;20034;-54
2022/10/20 01:56:00;;;;;;;10.60;4.72;;;;;;;22.30;45.45;101285.16;4993366;28;20029;-54
2022/10/20 01:59:00;;;;;;;15.40;5.22;;;;;;;22.48;45.52;101291.97;4994521;28;20072;-55
2022/10/20 02:01:45;;;;;;;12.75;4.65;;;;;;;22.27;46.15;101299.38;4987245;28;20042;-55
2022/10/20 02:04:12;;;;;;;14.73;5.53;;;;;;;22.08;47.40;101299.84;4992228;28;20521;-55
2022/10/20 02:06:53;;;;;;;11.63;4.50;;;;;;;22.19;47.38;101308.91;4994676;28;20697;-55
2022/10/20 02:09:32;;;;;;;10.00;5.55;;;;;;;21.88;48.56;101310.75;4993736;28;20085;-55
2022/10/20 02:12:31;;;;;;;14.05;5.45;;;;;;;21.76;49.42;101318.34;4994748;28;20102;-55
2022/10/20 02:14:59;;;;;;;10.80;5.43;;;;;;;21.82;49.29;101312.66;4975817;28;20049;-57
2022/10/20 02:17:26;;;;;;;15.93;5.43;;;;;;;21.86;49.08;101311.00;4993624;28;20045;-58
2022/10/20 02:19:53;;;;;;;11.35;5.00;;;;;;;21.87;48.95;101317.28;4992077;28;20034;-58
2022/10/20 02:22:20;;;;;;;14.82;5.65;;;;;;;21.58;49.89;101319.66;4982264;28;20501;-57
2022/10/20 02:24:47;;;;;;;14.82;5.93;;;;;;;21.53;50.07;101320.47;4988647;28;20490;-56
2022/10/20 02:27:23;;;;;;;12.48;5.82;;;;;;;21.33;50.88;101323.13;4990189;28;20058;-57
2022/10/20 02:30:04;;;;;;;16.73;5.75;;;;;;;21.25;51.33;101329.03;4975434;28;20044;-56
2022/10/20 02:32:33;;;;;;;18.45;5.75;;;;;;;21.18;51.24;101317.56;4991746;28;20054;-57
2022/10/20 02:34:59;;;;;;;15.65;6.15;;;;;;;21.06;52.02;101318.59;4991915;28;20022;-55
2022/10/20 02:37:25;;;;;;;18.42;6.57;;;;;;;21.02;52.15;101327.56;4984885;28;20038;-56
2022/10/20 02:39:51;;;;;;;11.43;6.20;;;;;;;20.79;52.49;101324.16;4985495;28;20042;-57
2022/10/20 02:42:18;;;;;;;11.45;5.07;;;;;;;20.76;52.66;101324.66;4993836;28;20058;-57
2022/10/20 02:44:44;;;;;;;13.70;5.80;;;;;;;20.77;52.82;101320.06;4994296;28;20030;-57
2022/10/20 02:47:10;;;;;;;13.90;5.47;;;;;;;20.77;52.40;101320.91;4993675;28;20034;-57
2022/10/20 02:49:36;;;;;;;13.88;5.38;;;;;;;20.64;52.96;101320.50;4994422;28;20042;-57
2022/10/20 02:52:03;;;;;;;11.95;5.32;;;;;;;20.46;53.85;101319.03;4976436;28;20375;-57
2022/10/20 02:54:29;;;;;;;12.82;5.80;;;;;;;20.52;54.09;101321.53;4976554;28;20035;-57
2022/10/20 02:56:55;;;;;;;10.45;5.85;;;;;;;20.51;53.73;101313.63;4993547;28;20064;-57
2022/10/20 02:59:21;;;;;;;12.00;6.22;;;;;;;20.43;54.34;101316.78;4984096;28;20061;-57
2022/10/20 03:01:47;;;;;;;17.08;6.00;;;;;;;20.53;54.51;101322.34;4974921;28;20045;-57
2022/10/20 03:04:14;;;;;;;8.93;5.47;;;;;;;20.33;55.44;101324.88;4991059;28;20029;-57
2022/10/20 03:06:41;;;;;;;13.77;6.00;;;;;;;20.33;55.39;101324.88;4994147;28;20084;-57
2022/10/20 03:09:07;;;;;;;14.13;5.30;;;;;;;20.10;56.34;101321.44;4993651;28;20037;-57
2022/10/20 03:11:33;;;;;;;12.88;6.13;;;;;;;20.23;55.84;101323.72;4986709;28;20038;-57
2022/10/20 03:13:59;;;;;;;12.35;5.95;;;;;;;20.06;56.52;101325.72;4979637;28;20034;-57
2022/10/20 03:16:25;;;;;;;15.90;6.15;;;;;;;20.13;56.55;101323.63;4985636;28;20084;-57
2022/10/20 03:18:52;;;;;;;12.10;5.90;;;;;;;20.14;56.22;101316.28;4988317;28;20034;-57
2022/10/20 03:21:18;;;;;;;14.30;6.10;;;;;;;20.17;55.80;101316.59;4993338;28;20026;-57
2022/10/20 03:23:45;;;;;;;16.40;6.65;;;;;;;20.13;56.23;101320.91;4992828;28;20034;-57
2022/10/20 03:26:11;;;;;;;18.60;7.40;;;;;;;19.83;56.90;101328.75;4993067;28;20757;-57
2022/10/20 03:28:39;;;;;;;14.32;6.05;;;;;;;19.92;56.92;101329.91;4989799;28;20030;-57
2022/10/20 03:31:06;;;;;;;13.07;6.28;;;;;;;19.87;57.34;101329.88;4975180;28;20026;-57
2022/10/20 03:33:32;;;;;;;14.63;5.97;;;;;;;19.99;56.95;101336.00;4993270;28;20037;-57
2022/10/20 03:35:58;;;;;;;23.00;6.78;;;;;;;19.74;58.18;101329.19;4991969;28;20487;-57
2022/10/20 03:38:25;;;;;;;10.98;5.72;;;;;;;19.75;57.87;101324.59;4990229;28;20022;-57
2022/10/20 03:40:51;;;;;;;14.95;6.25;;;;;;;19.84;57.68;101324.97;4990863;28;20120;-57
2022/10/20 03:43:17;;;;;;;19.00;6.75;;;;;;;19.82;58.17;101324.38;4992446;28;20031;-57
2022/10/20 03:45:44;;;;;;;17.65;7.38;;;;;;;20.04;57.64;101331.44;4992762;28;20037;-57
2022/10/20 03:48:11;;;;;;;14.80;6.60;;;;;;;20.00;58.20;101332.19;4991977;28;20041;-57
2022/10/20 03:50:38;;;;;;;17.63;6.03;;;;;;;19.73;58.73;101327.56;4992537;28;20022;-57
2022/10/20 03:53:05;;;;;;;15.98;5.93;;;;;;;19.64;59.82;101331.81;4992544;28;20054;-57
2022/10/20 03:55:31;;;;;;;18.05;6.13;;;;;;;19.50;59.99;101328.63;4992904;28;20146;-57
2022/10/20 03:57:57;;;;;;;18.10;6.38;;;;;;;19.26;61.71;101322.63;4991994;28;20049;-57
2022/10/20 04:00:24;;;;;;;14.73;6.15;;;;;;;19.51;60.80;101330.28;4975280;28;20034;-57
2022/10/20 04:02:51;;;;;;;16.20;6.75;;;;;;;19.56;60.77;101332.22;4991859;28;20026;-57
2022/10/20 04:05:19;;;;;;;19.77;7.00;;;;;;;19.46;60.72;101340.25;4990825;28;20101;-57
2022/10/20 04:07:46;;;;;;;19.50;7.10;;;;;;;19.16;62.17;101337.97;4985680;28;20498;-57
2022/10/20 04:10:15;;;;;;;23.95;6.43;;;;;;;18.83;63.92;101342.41;4992317;28;20446;-57
2022/10/20 04:12:42;;;;;;;15.98;5.93;;;;;;;18.98;63.58;101336.34;4992204;28;20030;-57
2022/10/20 04:15:09;;;;;;;16.83;6.45;;;;;;;18.98;63.83;101342.59;4991815;28;20057;-57
2022/10/20 04:17:38;;;;;;;14.52;5.95;;;;;;;18.84;65.18;101335.91;4992076;28;20041;-57
2022/10/20 04:20:05;;;;;;;15.35;6.05;;;;;;;18.75;65.87;101342.81;4992079;28;20382;-57
2022/10/20 04:22:32;;;;;;;14.85;5.90;;;;;;;18.66;66.24;101347.00;4991714;28;20019;-57
2022/10/20 04:24:58;;;;;;;17.52;6.18;;;;;;;18.75;65.72;101344.69;4992241;28;20030;-57
2022/10/20 04:27:24;;;;;;;14.15;6.32;;;;;;;18.82;64.85;101340.75;4991454;28;20368;-57
2022/10/20 04:29:50;;;;;;;12.18;6.13;;;;;;;18.57;65.84;101351.16;4992222;28;20026;-57
2022/10/20 04:32:16;;;;;;;17.92;6.22;;;;;;;18.46;66.13;101351.00;4991922;28;20022;-57
2022/10/20 04:34:42;;;;;;;17.42;6.40;;;;;;;18.59;66.14;101354.44;4992371;28;20022;-57
2022/10/20 04:37:09;;;;;;;18.55;6.32;;;;;;;18.36;67.46;101360.84;4981380;28;20038;-57
2022/10/20 04:39:35;;;;;;;19.33;6.55;;;;;;;18.26;67.93;101363.38;4991801;28;20022;-57
2022/10/20 04:42:01;;;;;;;20.58;6.90;;;;;;;18.26;67.71;101361.47;4991426;28;20045;-57
2022/10/20 04:44:27;;;;;;;15.40;6.55;;;;;;;18.16;68.61;101364.03;4992272;28;20049;-57
2022/10/20 04:46:54;;;;;;;24.83;7.07;;;;;;;18.25;68.35;101369.88;4991127;28;20053;-57
2022/10/20 04:49:22;;;;;;;19.65;6.28;;;;;;;18.02;69.23;101377.03;4992065;28;20108;-57
2022/10/20 04:51:49;;;;;;;13.95;5.97;;;;;;;18.03;69.66;101381.38;4991596;28;20069;-57
2022/10/20 04:54:15;;;;;;;18.75;6.63;;;;;;;17.93;70.32;101373.06;4992190;28;20034;-57
2022/10/20 04:56:41;;;;;;;13.68;6.38;;;;;;;17.99;69.94;101377.53;4991354;28;20641;-57
2022/10/20 04:59:09;;;;;;;17.73;6.72;;;;;;;17.81;70.44;101381.25;4991685;28;20037;-57
2022/10/20 05:01:35;;;;;;;18.17;6.18;;;;;;;17.82;70.33;101382.06;4991649;28;20030;-57
2022/10/20 05:04:01;;;;;;;14.88;5.78;;;;;;;17.80;70.45;101378.78;4992195;28;20038;-57
2022/10/20 05:06:32;;;;;;;13.15;5.95;;;;;;;17.53;71.00;101384.69;4988580;28;20084;-57
2022/10/20 05:09:01;;;;;;;18.27;5.65;;;;;;;17.40;71.69;101385.78;4990834;28;20041;-57
2022/10/20 05:11:29;;;;;;;19.23;5.80;;;;;;;17.41;72.08;101371.19;4992124;28;20030;-56
2022/10/20 05:13:55;;;;;;;19.70;5.63;;;;;;;17.33;72.26;101381.59;4989854;28;20039;-57
2022/10/20 05:16:22;;;;;;;19.02;5.80;;;;;;;17.35;72.18;101387.56;4991832;28;20030;-57
2022/10/20 05:18:51;;;;;;;21.30;6.30;;;;;;;17.20;73.13;101381.81;4988945;28;20062;-57
2022/10/20 05:21:22;;;;;;;18.92;7.07;;;;;;;17.13;73.46;101381.94;4991786;28;20019;-57
2022/10/20 05:23:54;;;;;;;18.02;6.65;;;;;;;17.07;73.89;101386.41;4990146;28;20581;-57
2022/10/20 05:26:20;;;;;;;20.33;6.20;;;;;;;17.05;73.60;101380.44;4991844;28;20046;-57
2022/10/20 05:28:49;;;;;;;22.95;7.18;;;;;;;16.99;74.07;101377.81;4990134;28;20030;-57
2022/10/20 05:31:17;;;;;;;16.17;5.88;;;;;;;16.88;74.26;101383.00;4989849;28;20034;-57
2022/10/20 05:33:45;;;;;;;15.25;6.18;;;;;;;17.07;73.31;101381.00;4991256;28;20057;-57
2022/10/20 05:36:14;;;;;;;17.23;5.90;;;;;;;17.12;72.90;101374.91;4990337;28;20041;-57
2022/10/20 05:38:41;;;;;;;19.55;5.68;;;;;;;17.23;72.25;101386.75;4991018;28;20045;-57
2022/10/20 05:41:09;;;;;;;18.55;6.20;;;;;;;17.14;72.54;101381.69;4989180;28;20026;-57
2022/10/20 05:43:36;;;;;;;17.05;6.72;;;;;;;17.03;73.02;101384.41;4991431;28;20461;-56
2022/10/20 05:46:03;;;;;;;16.83;6.22;;;;;;;17.01;73.40;101381.13;4990722;28;20030;-57
2022/10/20 05:48:29;;;;;;;16.58;6.15;;;;;;;17.01;73.43;101390.06;4990662;28;20487;-57
2022/10/20 05:50:55;;;;;;;17.42;5.60;;;;;;;16.98;73.84;101385.13;4990793;28;20041;-57
2022/10/20 05:53:22;;;;;;;15.68;5.70;;;;;;;16.96;73.68;101387.25;4995241;28;20052;-57
2022/10/20 05:55:49;;;;;;;12.50;5.57;;;;;;;17.07;73.34;101386.41;4994259;28;20047;-57
2022/10/20 05:58:15;;;;;;;10.45;5.53;;;;;;;17.01;73.47;101389.25;4994880;28;20046;-56
2022/10/20 06:00:50;;;;;;;16.58;5.80;;;;;;;16.95;73.10;101384.78;4993638;28;20041;-57
2022/10/20 06:03:16;;;;;;;14.63;6.30;;;;;;;16.94;73.19;101381.25;4994366;28;20176;-57
2022/10/20 06:05:43;;;;;;;20.05;6.18;;;;;;;16.92;73.47;101377.94;4993843;28;20049;-57
2022/10/20 06:08:09;;;;;;;11.75;5.80;;;;;;;16.84;73.46;101383.72;4993952;28;20029;-57
2022/10/20 06:10:35;;;;;;;10.68;5.85;;;;;;;16.93;73.23;101378.75;4993755;28;20030;-57
2022/10/20 06:13:01;;;;;;;12.13;5.93;;;;;;;16.88;73.10;101374.09;4994403;28;20085;-57
2022/10/20 06:15:27;;;;;;;12.43;5.95;;;;;;;16.90;72.94;101377.38;4991284;28;20030;-57
2022/10/20 06:17:53;;;;;;;13.98;5.43;;;;;;;16.82;73.39;101383.09;4992510;28;20034;-57
2022/10/20 06:20:20;;;;;;;13.07;5.68;;;;;;;16.77;73.59;101380.31;4993642;28;20041;-57
2022/10/20 06:22:46;;;;;;;13.45;6.18;;;;;;;16.77;73.54;101381.13;4994034;28;20030;-57
2022/10/20 06:25:12;;;;;;;9.77;5.60;;;;;;;16.91;72.81;101384.41;4991744;28;20056;-56
2022/10/20 06:27:38;;;;;;;13.63;5.82;;;;;;;16.84;73.47;101376.44;4992864;28;20400;-57
2022/10/20 06:30:05;;;;;;;13.93;5.90;;;;;;;16.75;73.47;101382.41;4994176;28;20030;-57
2022/10/20 06:32:31;;;;;;;14.70;6.40;;;;;;;16.49;74.83;101375.50;4992991;28;20486;-56
2022/10/20 06:34:57;;;;;;;13.05;6.25;;;;;;;16.63;74.10;101376.97;4994301;28;20029;-57
2022/10/20 06:37:23;;;;;;;13.00;6.35;;;;;;;16.56;74.92;101379.78;4992090;28;20037;-56
2022/10/20 06:39:49;;;;;;;13.10;6.72;;;;;;;16.59;74.85;101378.47;4994160;28;20504;-57
2022/10/20 06:42:16;;;;;;;13.82;5.97;;;;;;;16.53;75.11;101377.53;4981435;28;20487;-57
2022/10/20 06:44:42;;;;;;;14.88;6.85;;;;;;;16.42;75.80;101372.09;4993785;28;20031;-57
2022/10/20 06:47:09;;;;;;;11.85;6.43;;;;;;;16.49;75.24;101370.94;4991385;28;20037;-56
2022/10/20 06:49:35;;;;;;;14.77;6.55;;;;;;;16.29;76.32;101367.72;4993721;28;20034;-56
2022/10/20 06:52:01;;;;;;;13.77;6.00;;;;;;;16.39;76.01;101373.41;4993016;28;20698;-56
2022/10/20 06:54:27;;;;;;;15.00;6.78;;;;;;;16.33;76.72;101363.53;4993283;28;20034;-57
2022/10/20 06:56:54;;;;;;;13.48;6.55;;;;;;;16.25;77.09;101363.84;4991641;28;20077;-57
2022/10/20 06:59:20;;;;;;;15.82;7.55;;;;;;;16.27;76.86;101364.44;4992941;28;20063;-57
2022/10/20 07:01:46;;;;;;;17.65;6.35;;;;;;;16.25;77.12;101359.25;4992120;28;20034;-57
2022/10/20 07:04:15;;;;;;;14.23;6.22;;;;;;;16.21;77.14;101357.22;4991340;28;20072;-57
2022/10/20 07:06:43;;;;;;;13.25;7.18;;;;;;;16.31;76.40;101361.03;4991462;28;20069;-57
2022/10/20 07:09:14;;;;;;;20.45;6.80;;;;;;;16.34;76.53;101359.75;4992099;28;20041;-57
2022/10/20 07:11:41;;;;;;;19.17;6.38;;;;;;;16.31;76.66;101354.81;4993621;28;20026;-57
2022/10/20 07:14:12;;;;;;;16.65;6.85;;;;;;;16.26;76.92;101358.19;4991777;28;20127;-57
2022/10/20 07:16:38;;;;;;;18.15;7.25;;;;;;;16.32;76.52;101356.44;4992026;28;20034;-56
2022/10/20 07:19:04;;;;;;;12.20;6.18;;;;;;;16.25;76.63;101361.13;4993277;28;20040;-59
2022/10/20 07:21:31;;;;;;;13.32;5.80;;;;;;;15.99;77.77;101362.31;4991864;28;20121;-57
2022/10/20 07:24:00;;;;;;;14.93;6.57;;;;;;;16.08;77.49;101361.78;4976326;28;20031;-54
2022/10/20 07:26:32;;;;;;;15.15;6.20;;;;;;;16.04;77.55;101359.75;4971982;28;20085;-57
2022/10/20 07:29:00;;;;;;;14.25;6.13;;;;;;;15.99;77.45;101357.78;4971449;28;20111;-57
2022/10/20 07:31:32;;;;;;;15.18;6.70;;;;;;;16.06;77.22;101357.69;4983780;28;20014;-57
2022/10/20 07:33:59;;;;;;;14.73;6.00;;;;;;;16.25;76.26;101361.13;4990606;28;20034;-57
2022/10/20 07:36:31;;;;;;;11.05;5.75;;;;;;;16.08;76.94;101364.47;4991345;28;20459;-57
2022/10/20 07:39:00;;;;;;;13.93;6.30;;;;;;;16.17;76.66;101365.00;4981532;28;20069;-57
2022/10/20 07:41:27;;;;;;;9.43;5.60;;;;;;;16.04;77.14;101363.28;4985040;28;20018;-57
2022/10/20 07:43:54;;;;;;;13.43;6.95;;;;;;;16.08;76.85;101358.25;4993054;28;20309;-57
2022/10/20 07:46:20;;;;;;;12.23;6.03;;;;;;;16.06;76.81;101363.91;4985574;28;20033;-57
2022/10/20 07:48:46;;;;;;;12.00;5.90;;;;;;;16.08;77.20;101356.38;4992443;28;20038;-57
2022/10/20 07:51:33;;;;;;;14.55;5.90;;;;;;;16.19;76.62;101356.66;4992637;28;20029;-57
2022/10/20 07:54:07;;;;;;;9.88;5.68;;;;;;;16.05;76.80;101353.34;4991873;28;20054;-57
2022/10/20 07:56:40;;;;;;;15.70;6.10;;;;;;;15.95;77.18;101355.75;4988376;28;20027;-57
2022/10/20 07:59:07;;;;;;;12.15;5.75;;;;;;;15.89;77.24;101356.69;4982758;28;20029;-57
2022/10/20 08:01:34;;;;;;;12.05;5.25;;;;;;;15.96;77.11;101358.22;4991788;28;20034;-57
2022/10/20 08:04:00;;;;;;;14.02;5.70;;;;;;;15.83;77.30;101359.25;4990613;28;20479;-57
2022/10/20 08:06:27;;;;;;;9.48;5.72;;;;;;;15.75;77.80;101362.22;4991839;28;20142;-57
2022/10/20 08:08:53;;;;;;;10.20;5.90;;;;;;;15.80;77.21;101351.59;4992419;28;20026;-58
2022/10/20 08:11:19;;;;;;;12.77;5.57;;;;;;;15.87;76.79;101353.38;4991820;28;20033;-57
2022/10/20 08:13:46;;;;;;;13.60;6.18;;;;;;;15.82;77.19;101356.75;4989917;28;20126;-57
2022/10/20 08:16:13;;;;;;;11.88;5.78;;;;;;;15.69;77.59;101356.94;4992329;28;20034;-57
2022/10/20 08:18:41;;;;;;;13.75;6.07;;;;;;;15.65;77.65;101369.22;4991415;28;20479;-57
2022/10/20 08:21:11;;;;;;;12.70;5.55;;;;;;;15.64;77.57;101360.31;4991939;28;20030;-57
2022/10/20 08:23:39;;;;;;;11.43;5.63;;;;;;;15.62;77.16;101356.16;5008169;23;20053;-57
2022/10/20 08:26:06;;;;;;;11.70;6.03;;;;;;;15.70;77.01;101361.28;5011982;28;20029;-57
2022/10/20 08:28:32;;;;;;;9.48;5.63;;;;;;;15.72;77.34;101359.19;5011601;28;20033;-58
2022/10/20 08:31:02;;;;;;;14.38;6.15;;;;;;;15.62;77.53;101356.97;5011688;28;20050;-57
2022/10/20 08:33:28;;;;;;;11.13;5.50;;;;;;;15.52;77.79;101360.22;5006581;28;20097;-57
2022/10/20 08:35:54;;;;;;;10.23;5.63;;;;;;;15.55;78.10;101357.06;5000540;28;20021;-57
2022/10/20 08:38:20;;;;;;;10.10;5.70;;;;;;;15.46;77.97;101355.72;5010888;28;20101;-57
2022/10/20 08:40:47;;;;;;;13.32;5.78;;;;;;;15.54;77.88;101355.41;5011940;28;20026;-57
2022/10/20 08:43:18;;;;;;;10.50;5.90;;;;;;;15.26;79.50;101360.50;5011644;28;20113;-56
2022/10/20 08:45:44;;;;;;;16.98;6.45;;;;;;;15.25;79.13;101354.28;5011778;28;20030;-56
2022/10/20 08:48:37;;;;;;;12.60;6.60;;;;;;;15.24;78.83;101360.75;5011374;28;20033;-57
2022/10/20 08:51:04;;;;;;;10.93;6.38;;;;;;;15.15;79.47;101355.84;5008495;28;20038;-57
2022/10/20 08:53:38;;;;;;;8.75;6.35;;;;;;;15.12;79.25;101361.72;5009111;28;20040;-57
2022/10/20 08:56:05;;;;;;;9.32;5.43;;;;;;;15.00;79.79;101359.75;5011633;28;20054;-57
2022/10/20 08:58:31;;;;;;;13.45;5.95;;;;;;;15.02;79.88;101356.81;5009822;28;20034;-57
2022/10/20 09:01:00;;;;;;;10.57;5.82;;;;;;;14.91;80.34;101360.25;5010511;28;20052;-57
2022/10/20 09:03:32;;;;;;;13.32;6.20;;;;;;;14.82;80.93;101362.38;5009979;28;20475;-57
2022/10/20 09:06:16;;;;;;;12.45;6.38;;;;;;;14.61;82.02;101365.50;5010671;28;20034;-57
2022/10/20 09:08:43;;;;;;;11.00;6.85;;;;;;;14.63;82.03;101355.31;5008850;28;20108;-57
2022/10/20 09:11:20;;;;;;;11.15;6.20;;;;;;;14.82;81.16;101361.56;5010613;28;20030;-57
2022/10/20 09:13:46;;;;;;;11.02;5.97;;;;;;;14.81;80.89;101363.44;5009282;28;20105;-57
2022/10/20 09:16:37;;;;;;;11.43;6.40;;;;;;;14.68;81.15;101355.50;5010383;28;20030;-57
2022/10/20 09:19:06;;;;;;;12.40;6.90;;;;;;;14.40;82.20;101367.50;4991904;28;20524;-57
2022/10/20 09:21:37;;;;;;;10.40;6.82;;;;;;;14.70;80.99;101358.78;4999732;28;20042;-57
2022/10/20 09:24:05;;;;;;;13.02;6.15;;;;;;;14.64;81.19;101362.34;5008533;28;20145;-57
2022/10/20 09:26:43;;;;;;;8.07;6.07;;;;;;;14.52;81.82;101373.03;5013352;28;20024;-57
2022/10/20 09:29:15;;;;;;;9.63;5.05;;;;;;;14.53;81.52;101380.88;5013657;28;20042;-56
2022/10/20 09:31:45;;;;;;;8.98;5.70;;;;;;;14.62;81.11;101369.84;5013555;28;20029;-57
2022/10/20 09:34:26;;;;;;;11.85;6.13;;;;;;;14.48;81.83;101378.00;5013339;28;20171;-56
2022/10/20 09:37:07;;;;;;;9.20;5.45;;;;;;;14.46;81.70;101372.00;5012981;28;20080;-56
2022/10/20 09:39:47;;;;;;;9.57;5.38;;;;;;;14.45;81.44;101375.75;5012075;28;20030;-57
2022/10/20 09:42:18;;;;;;;8.98;5.18;;;;;;;14.39;82.04;101376.63;4999568;28;20025;-57
2022/10/20 09:45:28;;;;;;;9.07;5.25;;;;;;;14.45;81.69;101374.91;5013943;28;20029;-56
2022/10/20 09:48:00;;;;;;;9.32;5.75;;;;;;;14.45;81.44;101364.97;4933637;29;20031;-56
2022/10/20 09:50:31;;;;;;;9.05;5.68;;;;;;;14.43;82.00;101366.22;4934973;29;20028;-56
2022/10/20 09:53:01;;;;;;;10.25;5.80;;;;;;;14.14;83.12;101362.28;4977452;28;20042;-57
2022/10/20 09:55:34;;;;;;;9.63;5.72;;;;;;;14.20;82.40;101373.00;5013505;28;20125;-56
2022/10/20 09:58:03;;;;;;;12.18;5.90;;;;;;;14.39;81.52;101365.03;5011912;28;20065;-56
2022/10/20 10:00:36;;;;;;;7.80;5.05;;;;;;;14.36;81.59;101362.75;5013159;28;20036;-56
2022/10/20 10:03:22;;;;;;;10.48;6.13;;;;;;;14.33;81.67;101358.63;5011575;28;20510;-56
2022/10/20 10:05:57;;;;;;;7.53;5.90;;;;;;;14.23;82.03;101358.28;5013286;28;20034;-57
2022/10/20 10:08:39;;;;;;;6.50;5.80;;;;;;;14.10;83.00;101359.22;5013026;28;20045;-56
2022/10/20 10:11:18;;;;;;;10.75;6.15;;;;;;;14.07;83.27;101356.94;5013600;28;20030;-57
2022/10/20 10:13:48;;;;;;;11.88;6.18;;;;;;;14.15;83.02;101353.16;5012411;28;20053;-57
2022/10/20 10:16:18;;;;;;;9.55;5.78;;;;;;;14.27;82.17;101352.25;5011472;28;20034;-57
2022/10/20 10:18:59;;;;;;;7.85;5.72;;;;;;;14.08;83.06;101355.06;5013294;28;20116;-57
2022/10/20 10:21:25;;;;;;;10.52;6.18;;;;;;;14.25;81.93;101350.81;5012116;28;20030;-57
2022/10/20 10:23:54;;;;;;;10.25;6.25;;;;;;;14.17;82.26;101351.09;5011254;28;20064;-57
2022/10/20 10:26:54;;;;;;;9.60;6.57;;;;;;;14.15;82.06;101353.16;5011617;28;20042;-57
2022/10/20 10:29:27;;;;;;;10.68;6.22;;;;;;;14.08;82.08;101358.56;5013370;28;20029;-57
2022/10/20 10:32:00;;;;;;;10.40;6.68;;;;;;;14.10;82.56;101358.34;5011218;28;20053;-57
2022/10/20 10:34:34;;;;;;;9.25;6.45;;;;;;;14.14;82.34;101359.59;5007186;28;20061;-57
2022/10/20 10:37:00;;;;;;;9.95;6.70;;;;;;;14.13;82.15;101358.75;5011267;28;20110;-56
2022/10/20 10:39:30;;;;;;;10.35;6.95;;;;;;;14.11;82.27;101357.34;5013564;28;20030;-56
2022/10/20 10:42:08;;;;;;;9.93;6.53;;;;;;;14.24;81.95;101357.25;5011755;28;20034;-57
2022/10/20 10:45:01;;;;;;;11.93;6.80;;;;;;;14.08;82.43;101361.28;5013876;28;20030;-57
2022/10/20 10:47:33;;;;;;;10.57;6.85;;;;;;;14.27;81.74;101360.34;4994857;28;20486;-57
2022/10/20 10:50:31;;;;;;;9.50;7.30;;;;;;;14.04;82.74;101370.00;5011551;28;20092;-57
2022/10/20 10:53:18;;;;;;;10.55;7.45;;;;;;;14.17;82.12;101370.75;5011639;28;20099;-56
2022/10/20 10:55:57;;;;;;;11.00;7.28;;;;;;;14.04;83.27;101364.59;5013266;28;20025;-56
2022/10/20 10:58:46;;;;;;;13.25;8.30;;;;;;;14.06;83.21;101363.38;5011475;28;20029;-56
2022/10/20 11:01:34;;;;;;;10.45;7.72;;;;;;;14.23;82.96;101353.72;4993802;28;20026;-57
2022/10/20 11:04:27;;;;;;;11.50;7.25;;;;;;;14.26;82.03;101357.84;5011130;28;20042;-57
2022/10/20 11:07:13;;;;;;;10.77;6.90;;;;;;;14.30;81.74;101359.06;5009828;28;20033;-57
2022/10/20 11:10:29;;;;;;;11.50;7.68;;;;;;;14.27;82.19;101351.44;5013209;28;20030;-57
2022/10/20 11:13:35;;;;;;;10.45;7.15;;;;;;;14.13;82.39;101349.84;4962299;28;20542;-57
2022/10/20 11:16:30;;;;;;;12.63;7.85;;;;;;;14.04;83.11;101360.03;5002259;28;20081;-57
2022/10/20 11:19:25;;;;;;;12.55;7.60;;;;;;;14.26;82.35;101352.44;4998463;28;20076;-57
2022/10/20 11:21:57;;;;;;;12.75;8.32;;;;;;;14.22;82.83;101351.25;4993996;28;20347;-57
2022/10/20 11:24:36;;;;;;;13.98;8.55;;;;;;;14.33;82.82;101352.44;5011677;28;20109;-56
2022/10/20 11:27:10;;;;;;;12.75;8.27;;;;;;;14.11;83.85;101350.09;5011746;28;20555;-57
2022/10/20 11:29:50;;;;;;;14.80;8.75;;;;;;;14.20;83.84;101354.16;5011192;28;20124;-57
2022/10/20 11:32:35;;;;;;;14.65;8.90;;;;;;;13.97;84.67;101349.31;5002814;28;20385;-57
2022/10/20 11:35:22;;;;;;;12.82;8.57;;;;;;;14.12;84.39;101348.22;5006235;28;20474;-56
2022/10/20 11:38:06;;;;;;;13.73;8.70;;;;;;;14.17;84.32;101351.09;5010695;28;20091;-56